Time;durP1;ratioP1;P1;durP2;ratioP2;P2;SDS_P1;SDS_P2;PMS_P1;PMS_P2;Temp;Humidity;BMP_temperature;BMP_pressure;BME280_temperature;BME280_humidity;BME280_pressure;Samples;Min_cycle;Max_cycle;Signal;HPM_P1;HPM_P2
2023/04/15 00:01:02;;;;;;;3.80;2.20;;;;;;;;;;5133603;28;20439;-72
2023/04/15 00:03:51;;;;;;;3.42;2.00;;;;;;;;;;5133641;28;20059;-71
2023/04/15 00:06:36;;;;;;;5.18;1.80;;;;;;;;;;5134820;28;20026;-71
2023/04/15 00:09:22;;;;;;;3.03;1.77;;;;;;;;;;5133776;28;20072;-71
2023/04/15 00:12:08;;;;;;;5.38;1.85;;;;;;;;;;5134807;28;20488;-71
2023/04/15 00:14:55;;;;;;;4.13;1.92;;;;;;;;;;5135146;28;20044;-72
2023/04/15 00:17:41;;;;;;;5.70;1.70;;;;;;;;;;5135499;27;20055;-71
2023/04/15 00:20:27;;;;;;;4.15;1.85;;;;;;;;;;5124869;27;20066;-71
2023/04/15 00:23:12;;;;;;;5.35;2.53;;;;;;;;;;5124214;27;20019;-71
2023/04/15 00:25:58;;;;;;;5.30;1.80;;;;;;;;;;5138135;27;20332;-72
2023/04/15 00:28:44;;;;;;;3.08;1.90;;;;;;;;;;5137634;27;20109;-72
2023/04/15 00:31:30;;;;;;;3.53;1.70;;;;;;;;;;5137048;27;20400;-71
2023/04/15 00:34:15;;;;;;;4.47;1.80;;;;;;;;;;5122261;27;20486;-72
2023/04/15 00:37:01;;;;;;;4.88;1.67;;;;;;;;;;5137534;27;20089;-72
2023/04/15 00:39:47;;;;;;;8.55;2.40;;;;;;;;;;5121934;27;20110;-72
2023/04/15 00:42:33;;;;;;;3.50;2.22;;;;;;;;;;5137755;27;20404;-72
2023/04/15 00:45:19;;;;;;;3.40;2.50;;;;;;;;;;5137801;27;20015;-71
2023/04/15 00:48:05;;;;;;;5.28;2.13;;;;;;;;;;5138380;27;20023;-71
2023/04/15 00:50:50;;;;;;;6.13;2.47;;;;;;;;;;5137427;27;20118;-71
2023/04/15 00:53:36;;;;;;;3.38;2.30;;;;;;;;;;5136672;27;20023;-71
2023/04/15 00:56:23;;;;;;;3.83;2.90;;;;;;;;;;5123667;27;20088;-71
2023/04/15 00:59:09;;;;;;;4.57;3.05;;;;;;;;;;5138350;27;20453;-73
2023/04/15 01:01:55;;;;;;;5.35;3.47;;;;;;;;;;5136936;27;20080;-72
2023/04/15 01:04:41;;;;;;;6.82;3.85;;;;;;;;;;5138327;27;20087;-72
2023/04/15 01:07:26;;;;;;;6.95;4.03;;;;;;;;;;5122599;27;20036;-72
2023/04/15 01:10:13;;;;;;;8.45;4.50;;;;;;;;;;5138630;27;20398;-71
2023/04/15 01:12:59;;;;;;;6.13;3.53;;;;;;;;;;5136357;27;20046;-71
2023/04/15 01:15:44;;;;;;;5.97;4.10;;;;;;;;;;5124441;27;20042;-71
2023/04/15 01:18:30;;;;;;;7.82;4.00;;;;;;;;;;5136664;27;20171;-71
2023/04/15 01:21:17;;;;;;;5.65;3.80;;;;;;;;;;5143406;27;20030;-71
2023/04/15 01:24:04;;;;;;;5.85;4.25;;;;;;;;;;5144319;27;20488;-71
2023/04/15 01:26:50;;;;;;;8.95;4.78;;;;;;;;;;5136695;27;20088;-71
2023/04/15 01:29:37;;;;;;;7.20;4.15;;;;;;;;;;5123090;27;20088;-71
2023/04/15 01:32:23;;;;;;;5.25;3.97;;;;;;;;;;5136706;27;20060;-71
2023/04/15 01:35:09;;;;;;;7.32;4.20;;;;;;;;;;5137622;27;20061;-71
2023/04/15 01:37:58;;;;;;;7.05;4.78;;;;;;;;;;5137972;27;20358;-71
2023/04/15 01:40:43;;;;;;;9.32;4.90;;;;;;;;;;5141120;27;20012;-71
2023/04/15 01:43:29;;;;;;;7.15;5.13;;;;;;;;;;5130618;27;20405;-72
2023/04/15 01:46:15;;;;;;;7.80;4.90;;;;;;;;;;5137024;27;20012;-72
2023/04/15 01:49:01;;;;;;;9.88;5.20;;;;;;;;;;5124003;27;20042;-72
2023/04/15 01:51:46;;;;;;;7.75;4.93;;;;;;;;;;5137082;27;20069;-71
2023/04/15 01:54:32;;;;;;;5.63;4.53;;;;;;;;;;5122360;27;20450;-71
2023/04/15 01:57:18;;;;;;;6.03;4.18;;;;;;;;;;5135845;27;20029;-71
2023/04/15 02:00:03;;;;;;;7.65;4.38;;;;;;;;;;5135781;27;20100;-71
2023/04/15 02:02:49;;;;;;;7.25;4.00;;;;;;;;;;5135980;27;20023;-72
2023/04/15 02:05:35;;;;;;;7.65;4.05;;;;;;;;;;5135829;27;20102;-72
2023/04/15 02:08:21;;;;;;;8.07;4.53;;;;;;;;;;5135567;27;20047;-72
2023/04/15 02:11:07;;;;;;;9.45;4.38;;;;;;;;;;5136116;27;20096;-72
2023/04/15 02:13:52;;;;;;;7.55;3.92;;;;;;;;;;5122718;27;20041;-71
2023/04/15 02:16:38;;;;;;;6.18;4.30;;;;;;;;;;5136082;27;20496;-71
2023/04/15 02:19:24;;;;;;;9.93;4.07;;;;;;;;;;5137096;27;20031;-71
2023/04/15 02:22:13;;;;;;;5.65;3.92;;;;;;;;;;5136242;27;20023;-72
2023/04/15 02:24:59;;;;;;;7.55;4.43;;;;;;;;;;5136049;27;20077;-71
2023/04/15 02:27:44;;;;;;;6.53;3.83;;;;;;;;;;5135431;27;20027;-72
2023/04/15 02:30:30;;;;;;;7.60;4.55;;;;;;;;;;5136082;27;20114;-71
2023/04/15 02:33:15;;;;;;;9.98;4.35;;;;;;;;;;5134611;27;20023;-71
2023/04/15 02:36:01;;;;;;;7.10;3.90;;;;;;;;;;5135432;27;20023;-71
2023/04/15 02:38:46;;;;;;;8.98;4.43;;;;;;;;;;5134763;27;20347;-71
2023/04/15 02:41:32;;;;;;;10.23;4.97;;;;;;;;;;5134468;27;20476;-70
2023/04/15 02:44:19;;;;;;;10.10;4.20;;;;;;;;;;5134357;27;20026;-70
2023/04/15 02:47:05;;;;;;;11.27;4.75;;;;;;;;;;5135672;27;20061;-71
2023/04/15 02:49:51;;;;;;;10.77;4.78;;;;;;;;;;5135668;27;20084;-71
2023/04/15 02:52:40;;;;;;;7.47;4.53;;;;;;;;;;5135642;27;20016;-71
2023/04/15 02:55:26;;;;;;;10.82;5.20;;;;;;;;;;5135609;27;20080;-72
2023/04/15 02:58:12;;;;;;;11.30;5.45;;;;;;;;;;5134888;27;20027;-71
2023/04/15 03:00:57;;;;;;;8.98;5.47;;;;;;;;;;5136038;27;20015;-71
2023/04/15 03:03:43;;;;;;;10.02;5.82;;;;;;;;;;5134631;27;20072;-72
2023/04/15 03:06:28;;;;;;;11.02;5.85;;;;;;;;;;5134578;27;20503;-71
2023/04/15 03:09:14;;;;;;;10.70;6.32;;;;;;;;;;5134753;27;20117;-71
2023/04/15 03:12:00;;;;;;;9.75;5.88;;;;;;;;;;5135665;28;20035;-70
2023/04/15 03:14:45;;;;;;;11.35;5.63;;;;;;;;;;5121191;28;20015;-71
2023/04/15 03:17:31;;;;;;;8.40;5.97;;;;;;;;;;5120709;28;20034;-71
2023/04/15 03:20:16;;;;;;;8.75;5.90;;;;;;;;;;5135087;28;20435;-71
2023/04/15 03:23:02;;;;;;;12.40;5.93;;;;;;;;;;5134372;28;20102;-71
2023/04/15 03:25:47;;;;;;;9.68;5.80;;;;;;;;;;5134788;28;20011;-71
2023/04/15 03:28:33;;;;;;;11.98;6.05;;;;;;;;;;5134585;28;20102;-72
2023/04/15 03:31:19;;;;;;;9.95;5.80;;;;;;;;;;5134182;28;20105;-72
2023/04/15 03:34:05;;;;;;;10.15;5.80;;;;;;;;;;5121890;28;20168;-72
2023/04/15 03:36:51;;;;;;;11.98;6.30;;;;;;;;;;5121675;28;20030;-72
2023/04/15 03:39:36;;;;;;;11.88;6.13;;;;;;;;;;5135294;28;20437;-71
2023/04/15 03:42:22;;;;;;;16.75;6.60;;;;;;;;;;5134201;28;20027;-71
2023/04/15 03:45:07;;;;;;;17.73;6.15;;;;;;;;;;5133885;28;20102;-71
2023/04/15 03:47:53;;;;;;;13.13;6.07;;;;;;;;;;5134474;28;20463;-72
2023/04/15 03:50:39;;;;;;;12.25;6.32;;;;;;;;;;5136687;28;20038;-71
2023/04/15 03:53:24;;;;;;;11.32;6.45;;;;;;;;;;5136967;27;20023;-71
2023/04/15 03:56:10;;;;;;;13.52;6.65;;;;;;;;;;5128386;27;20054;-72
2023/04/15 03:58:55;;;;;;;12.98;6.80;;;;;;;;;;5138084;27;20033;-70
2023/04/15 04:01:41;;;;;;;11.18;5.97;;;;;;;;;;5137846;27;20030;-71
2023/04/15 04:04:26;;;;;;;12.43;5.70;;;;;;;;;;5138923;27;20011;-72
2023/04/15 04:07:15;;;;;;;13.82;5.75;;;;;;;;;;5137140;27;20031;-72
2023/04/15 04:10:02;;;;;;;13.75;6.57;;;;;;;;;;5138255;27;20023;-72
2023/04/15 04:12:48;;;;;;;12.82;6.65;;;;;;;;;;5123417;27;20023;-71
2023/04/15 04:15:33;;;;;;;14.90;6.75;;;;;;;;;;5138733;27;20058;-72
2023/04/15 04:18:19;;;;;;;13.55;6.82;;;;;;;;;;5138413;27;20412;-73
2023/04/15 04:21:05;;;;;;;12.32;6.55;;;;;;;;;;5138335;27;20110;-71
2023/04/15 04:23:50;;;;;;;14.43;6.93;;;;;;;;;;5138454;27;20012;-71
2023/04/15 04:26:36;;;;;;;11.45;6.90;;;;;;;;;;5139125;27;20027;-71
2023/04/15 04:29:22;;;;;;;12.82;6.40;;;;;;;;;;5138169;27;20019;-72
2023/04/15 04:32:07;;;;;;;16.25;7.18;;;;;;;;;;5139239;27;20419;-71
2023/04/15 04:34:53;;;;;;;11.48;7.18;;;;;;;;;;5139144;27;20023;-72
2023/04/15 04:37:39;;;;;;;28.63;16.08;;;;;;;;;;5137245;27;20069;-71
2023/04/15 04:40:25;;;;;;;11.73;7.50;;;;;;;;;;5124073;27;20026;-72
2023/04/15 04:43:10;;;;;;;12.55;7.50;;;;;;;;;;5137081;27;20023;-72
2023/04/15 04:45:56;;;;;;;12.23;7.03;;;;;;;;;;5125313;27;20102;-72
2023/04/15 04:48:41;;;;;;;12.43;7.18;;;;;;;;;;5127189;27;20019;-71
2023/04/15 04:51:27;;;;;;;12.43;6.03;;;;;;;;;;5138316;27;20023;-72
2023/04/15 04:54:12;;;;;;;11.82;6.90;;;;;;;;;;5139165;27;20153;-72
2023/04/15 04:56:58;;;;;;;8.95;5.53;;;;;;;;;;5136799;27;20359;-72
2023/04/15 04:59:44;;;;;;;7.97;5.38;;;;;;;;;;5136318;27;20019;-70
2023/04/15 05:02:31;;;;;;;12.32;4.90;;;;;;;;;;5122943;27;20015;-71
2023/04/15 05:05:16;;;;;;;9.68;5.22;;;;;;;;;;5137966;27;20030;-71
2023/04/15 05:08:02;;;;;;;8.40;5.13;;;;;;;;;;5123447;27;20051;-71
2023/04/15 05:10:47;;;;;;;7.68;5.05;;;;;;;;;;5136880;27;20155;-72
2023/04/15 05:13:33;;;;;;;9.10;5.28;;;;;;;;;;5136230;27;20031;-70
2023/04/15 05:16:19;;;;;;;8.43;5.22;;;;;;;;;;5136813;27;20023;-72
2023/04/15 05:19:05;;;;;;;8.70;4.85;;;;;;;;;;5136302;27;20405;-73
2023/04/15 05:21:50;;;;;;;6.20;5.00;;;;;;;;;;5123731;27;20026;-70
2023/04/15 05:24:36;;;;;;;8.38;4.63;;;;;;;;;;5137527;27;20016;-70
2023/04/15 05:27:22;;;;;;;6.47;4.35;;;;;;;;;;5136157;27;20019;-71
2023/04/15 05:30:08;;;;;;;11.73;5.43;;;;;;;;;;5136798;27;20385;-71
2023/04/15 05:32:54;;;;;;;7.68;4.82;;;;;;;;;;5136571;27;20023;-71
2023/04/15 05:35:39;;;;;;;10.63;4.70;;;;;;;;;;5136050;27;20023;-72
2023/04/15 05:38:25;;;;;;;5.93;4.47;;;;;;;;;;5137251;27;20152;-71
2023/04/15 05:41:11;;;;;;;8.23;5.13;;;;;;;;;;5121725;27;20114;-72
2023/04/15 05:43:57;;;;;;;8.13;4.50;;;;;;;;;;5135514;27;20034;-72
2023/04/15 05:46:43;;;;;;;6.95;4.45;;;;;;;;;;5136672;27;20019;-71
2023/04/15 05:49:29;;;;;;;8.60;5.00;;;;;;;;;;5123843;27;20027;-71
2023/04/15 05:52:15;;;;;;;7.88;5.00;;;;;;;;;;5122477;27;20080;-72
2023/04/15 05:55:01;;;;;;;6.78;4.45;;;;;;;;;;5136341;27;20496;-71
2023/04/15 05:57:46;;;;;;;9.57;4.90;;;;;;;;;;5135074;27;20027;-71
2023/04/15 06:00:32;;;;;;;8.80;4.93;;;;;;;;;;5115041;28;20051;-70
2023/04/15 06:03:18;;;;;;;12.20;5.80;;;;;;;;;;5120094;27;20045;-72
2023/04/15 06:06:03;;;;;;;11.30;5.22;;;;;;;;;;5123514;27;20015;-72
2023/04/15 06:08:49;;;;;;;8.82;5.13;;;;;;;;;;5134861;27;20130;-71
2023/04/15 06:11:35;;;;;;;9.05;4.97;;;;;;;;;;5123051;27;20079;-71
2023/04/15 06:14:20;;;;;;;8.40;4.55;;;;;;;;;;5136403;27;20037;-71
2023/04/15 06:17:06;;;;;;;6.95;4.63;;;;;;;;;;5136191;27;20015;-72
2023/04/15 06:19:55;;;;;;;6.80;4.18;;;;;;;;;;5122172;27;20035;-72
2023/04/15 06:22:40;;;;;;;7.80;4.88;;;;;;;;;;5123425;27;20019;-71
2023/04/15 06:25:26;;;;;;;8.18;4.55;;;;;;;;;;5135424;27;20027;-72
2023/04/15 06:28:12;;;;;;;10.30;3.88;;;;;;;;;;5121867;27;20115;-72
2023/04/15 06:30:57;;;;;;;6.45;3.88;;;;;;;;;;5135633;27;20023;-72
2023/04/15 06:33:43;;;;;;;6.38;3.30;;;;;;;;;;5136049;27;20460;-72
2023/04/15 06:36:29;;;;;;;5.32;3.30;;;;;;;;;;5135215;27;20030;-72
2023/04/15 06:39:15;;;;;;;5.25;3.25;;;;;;;;;;5135077;27;20109;-72
2023/04/15 06:42:00;;;;;;;5.70;2.90;;;;;;;;;;5136042;27;20300;-71
2023/04/15 06:44:46;;;;;;;5.63;2.92;;;;;;;;;;5135072;27;20042;-72
2023/04/15 06:47:31;;;;;;;4.50;2.78;;;;;;;;;;5121219;27;20080;-71
2023/04/15 06:50:17;;;;;;;4.32;2.97;;;;;;;;;;5135047;27;20319;-71
2023/04/15 06:53:03;;;;;;;5.88;3.10;;;;;;;;;;5135948;27;20026;-71
2023/04/15 06:55:48;;;;;;;5.57;2.97;;;;;;;;;;5121860;27;20598;-72
2023/04/15 06:58:34;;;;;;;5.50;3.00;;;;;;;;;;5134638;27;20385;-71
2023/04/15 07:01:20;;;;;;;5.40;3.20;;;;;;;;;;5121551;27;20030;-71
2023/04/15 07:04:05;;;;;;;6.60;3.00;;;;;;;;;;5134538;27;20030;-72
2023/04/15 07:06:51;;;;;;;11.80;3.28;;;;;;;;;;5135201;27;20041;-72
2023/04/15 07:09:37;;;;;;;6.97;2.97;;;;;;;;;;5134789;27;20340;-72
2023/04/15 07:12:23;;;;;;;7.13;3.00;;;;;;;;;;5134782;27;20034;-71
2023/04/15 07:15:08;;;;;;;6.38;2.83;;;;;;;;;;5134644;28;20382;-71
2023/04/15 07:17:55;;;;;;;5.28;2.85;;;;;;;;;;5135039;28;20032;-73
2023/04/15 07:20:40;;;;;;;6.28;3.15;;;;;;;;;;5135161;28;20019;-71
2023/04/15 07:23:26;;;;;;;5.97;2.42;;;;;;;;;;5121000;28;20019;-71
2023/04/15 07:26:12;;;;;;;5.10;2.90;;;;;;;;;;5136290;27;20015;-70
2023/04/15 07:28:58;;;;;;;5.82;2.65;;;;;;;;;;5138884;27;20406;-72
2023/04/15 07:31:43;;;;;;;6.40;2.45;;;;;;;;;;5125162;27;20462;-74
2023/04/15 07:34:29;;;;;;;5.63;2.75;;;;;;;;;;5126585;27;20019;-71
2023/04/15 07:37:15;;;;;;;6.03;2.85;;;;;;;;;;5139271;27;20033;-73
2023/04/15 07:40:00;;;;;;;3.63;2.50;;;;;;;;;;5138891;27;20027;-72
2023/04/15 07:42:48;;;;;;;6.13;3.17;;;;;;;;;;5138914;27;20015;-71
2023/04/15 07:45:34;;;;;;;9.63;3.20;;;;;;;;;;5138166;27;20030;-72
2023/04/15 07:48:20;;;;;;;5.90;3.17;;;;;;;;;;5139284;27;20083;-71
2023/04/15 07:51:05;;;;;;;7.45;3.55;;;;;;;;;;5138349;27;20019;-71
2023/04/15 07:53:51;;;;;;;7.93;3.05;;;;;;;;;;5138145;27;20025;-73
2023/04/15 07:56:37;;;;;;;5.78;2.78;;;;;;;;;;5139589;27;20034;-72
2023/04/15 07:59:22;;;;;;;6.65;3.85;;;;;;;;;;5138163;27;20404;-71
2023/04/15 08:02:08;;;;;;;4.88;2.90;;;;;;;;;;5139770;27;20015;-72
2023/04/15 08:04:54;;;;;;;5.38;3.80;;;;;;;;;;5139208;27;20011;-72
2023/04/15 08:07:39;;;;;;;6.45;3.90;;;;;;;;;;5138139;27;20348;-71
2023/04/15 08:10:25;;;;;;;6.57;3.60;;;;;;;;;;5138391;27;20482;-71
2023/04/15 08:13:11;;;;;;;7.28;3.50;;;;;;;;;;5138002;27;20076;-72
2023/04/15 08:16:29;;;;;;;9.93;4.30;;;;;;;;;;5139223;27;20027;-72
2023/04/15 08:19:15;;;;;;;7.75;4.03;;;;;;;;;;5096979;27;20359;-71
2023/04/15 08:22:01;;;;;;;10.07;4.45;;;;;;;;;;5138001;27;20019;-72
2023/04/15 08:24:46;;;;;;;6.78;4.22;;;;;;;;;;5139848;27;20435;-73
2023/04/15 08:27:32;;;;;;;6.85;4.57;;;;;;;;;;5138449;27;20035;-72
2023/04/15 08:30:18;;;;;;;6.43;3.83;;;;;;;;;;5138808;27;20110;-71
2023/04/15 08:33:03;;;;;;;7.07;3.35;;;;;;;;;;5126198;27;20416;-71
2023/04/15 08:35:49;;;;;;;4.82;3.80;;;;;;;;;;5150268;27;20030;-72
2023/04/15 08:38:35;;;;;;;5.55;3.70;;;;;;;;;;5136803;27;20030;-72
2023/04/15 08:41:22;;;;;;;10.10;4.10;;;;;;;;;;5136916;27;20019;-72
2023/04/15 08:44:08;;;;;;;10.38;4.03;;;;;;;;;;5137751;27;20019;-72
2023/04/15 08:46:55;;;;;;;4.38;3.38;;;;;;;;;;5138932;27;20062;-72
2023/04/15 08:49:41;;;;;;;7.85;3.78;;;;;;;;;;5139691;27;20023;-73
2023/04/15 08:52:29;;;;;;;7.22;3.30;;;;;;;;;;5138086;27;20042;-72
2023/04/15 08:55:15;;;;;;;7.00;3.55;;;;;;;;;;5137626;27;20015;-71
2023/04/15 08:58:01;;;;;;;6.90;3.50;;;;;;;;;;5138039;27;20324;-72
2023/04/15 09:00:47;;;;;;;5.10;3.78;;;;;;;;;;5137913;27;20034;-71
2023/04/15 09:03:33;;;;;;;6.57;2.83;;;;;;;;;;5138537;27;20019;-72
2023/04/15 09:06:19;;;;;;;5.68;3.13;;;;;;;;;;5137218;27;20518;-72
2023/04/15 09:09:05;;;;;;;5.07;2.63;;;;;;;;;;5137562;27;20082;-71
2023/04/15 09:11:51;;;;;;;5.70;2.80;;;;;;;;;;5136962;27;20512;-72
2023/04/15 09:14:39;;;;;;;3.90;2.78;;;;;;;;;;5137436;27;20031;-72
2023/04/15 09:17:26;;;;;;;4.72;2.75;;;;;;;;;;5137032;27;20034;-72
2023/04/15 09:20:13;;;;;;;3.95;2.67;;;;;;;;;;5136663;27;20129;-72
2023/04/15 09:22:59;;;;;;;4.85;2.92;;;;;;;;;;5122743;27;20348;-71
2023/04/15 09:25:45;;;;;;;6.20;3.30;;;;;;;;;;5137216;27;20019;-71
2023/04/15 09:28:30;;;;;;;14.18;3.20;;;;;;;;;;5136461;27;20023;-71
2023/04/15 09:31:17;;;;;;;7.10;3.25;;;;;;;;;;5136512;27;20102;-71
2023/04/15 09:34:03;;;;;;;3.72;2.53;;;;;;;;;;5136672;27;20034;-72
2023/04/15 09:36:49;;;;;;;4.68;2.83;;;;;;;;;;5138594;27;20038;-71
2023/04/15 09:39:48;;;;;;;5.28;2.40;;;;;;;;;;5136495;27;20435;-71
2023/04/15 09:42:34;;;;;;;4.20;2.50;;;;;;;;;;5135879;27;20097;-72
2023/04/15 09:45:20;;;;;;;6.63;2.60;;;;;;;;;;5121692;27;20408;-71
2023/04/15 09:48:15;;;;;;;7.72;2.88;;;;;;;;;;5136875;27;20050;-72
2023/04/15 09:51:01;;;;;;;5.55;2.30;;;;;;;;;;5121614;27;20435;-71
2023/04/15 09:53:53;;;;;;;4.90;2.10;;;;;;;;;;5123797;27;20460;-71
2023/04/15 09:56:41;;;;;;;11.23;2.50;;;;;;;;;;5121899;27;20065;-71
2023/04/15 09:59:27;;;;;;;2.80;2.17;;;;;;;;;;5137243;27;20051;-72
2023/04/15 10:02:13;;;;;;;42.60;4.97;;;;;;;;;;5137009;27;20098;-73
2023/04/15 10:04:59;;;;;;;2.70;2.25;;;;;;;;;;5136367;27;20027;-71
2023/04/15 10:07:45;;;;;;;4.82;2.08;;;;;;;;;;5136305;27;20108;-72
2023/04/15 10:10:32;;;;;;;3.15;2.50;;;;;;;;;;5120653;27;20019;-71
2023/04/15 10:13:19;;;;;;;3.03;2.15;;;;;;;;;;5135879;27;20035;-72
2023/04/15 10:16:06;;;;;;;6.72;2.50;;;;;;;;;;5136124;27;20080;-72
2023/04/15 10:18:55;;;;;;;22.80;3.50;;;;;;;;;;5135683;27;20023;-71
2023/04/15 10:21:41;;;;;;;4.65;2.70;;;;;;;;;;5122160;27;20045;-72
2023/04/15 10:24:27;;;;;;;3.03;2.08;;;;;;;;;;5136506;27;20015;-71
2023/04/15 10:27:12;;;;;;;3.50;2.15;;;;;;;;;;5121828;27;20015;-72
2023/04/15 10:29:59;;;;;;;3.03;1.98;;;;;;;;;;5134760;27;20117;-72
2023/04/15 10:32:45;;;;;;;5.03;2.03;;;;;;;;;;5136319;27;20023;-72
2023/04/15 10:35:33;;;;;;;4.75;2.00;;;;;;;;;;5136226;27;20115;-72
2023/04/15 10:38:30;;;;;;;2.78;1.70;;;;;;;;;;5135911;27;20439;-72
2023/04/15 10:41:22;;;;;;;6.53;1.75;;;;;;;;;;5135819;27;20019;-72
2023/04/15 10:44:08;;;;;;;2.20;1.80;;;;;;;;;;5135371;27;20056;-72
2023/04/15 10:46:57;;;;;;;9.20;3.00;;;;;;;;;;5120856;27;20314;-71
2023/04/15 10:49:56;;;;;;;2.80;1.88;;;;;;;;;;5120712;27;20019;-72
2023/04/15 10:52:42;;;;;;;6.05;2.17;;;;;;;;;;5120890;27;20023;-71
2023/04/15 10:55:31;;;;;;;4.85;1.88;;;;;;;;;;5122363;27;20056;-72
2023/04/15 10:58:16;;;;;;;4.10;1.52;;;;;;;;;;5135088;27;20079;-71
2023/04/15 11:01:03;;;;;;;5.03;1.67;;;;;;;;;;5134482;27;20431;-72
2023/04/15 11:03:50;;;;;;;3.22;1.55;;;;;;;;;;5124282;27;20031;-72
2023/04/15 11:06:45;;;;;;;2.25;1.50;;;;;;;;;;5136974;27;20029;-71
2023/04/15 11:09:32;;;;;;;2.08;1.30;;;;;;;;;;5136496;27;20405;-72
2023/04/15 11:12:17;;;;;;;3.38;1.40;;;;;;;;;;5120022;28;20051;-72
2023/04/15 11:15:22;;;;;;;3.20;1.30;;;;;;;;;;5135804;27;20102;-72
2023/04/15 11:18:17;;;;;;;4.03;1.25;;;;;;;;;;5134380;28;20031;-72
2023/04/15 11:21:04;;;;;;;3.47;1.20;;;;;;;;;;5133837;28;20062;-71
2023/04/15 11:23:50;;;;;;;2.75;1.10;;;;;;;;;;5120625;28;20035;-72
2023/04/15 11:26:35;;;;;;;1.90;1.20;;;;;;;;;;5121112;28;20448;-72
2023/04/15 11:29:21;;;;;;;6.88;1.50;;;;;;;;;;5121286;28;20370;-72
2023/04/15 11:32:10;;;;;;;2.55;1.35;;;;;;;;;;5134063;28;20027;-72
2023/04/15 11:34:57;;;;;;;2.92;1.27;;;;;;;;;;5133514;28;20039;-73
2023/04/15 11:37:43;;;;;;;3.72;1.45;;;;;;;;;;5113623;28;20034;-71
2023/04/15 11:40:29;;;;;;;2.42;1.42;;;;;;;;;;5134849;28;20030;-71
2023/04/15 11:43:19;;;;;;;2.13;1.30;;;;;;;;;;5118911;28;20079;-72
2023/04/15 11:46:05;;;;;;;1.52;0.98;;;;;;;;;;5134562;28;20347;-71
2023/04/15 11:48:51;;;;;;;4.97;1.35;;;;;;;;;;5134249;28;20102;-71
2023/04/15 11:51:36;;;;;;;20.50;5.35;;;;;;;;;;5119544;28;20023;-71
2023/04/15 11:54:22;;;;;;;3.20;1.35;;;;;;;;;;5134362;28;20073;-71
2023/04/15 11:57:07;;;;;;;1.85;1.00;;;;;;;;;;5134069;28;20124;-71
2023/04/15 11:59:53;;;;;;;6.45;1.48;;;;;;;;;;5133449;28;20114;-72
2023/04/15 12:02:39;;;;;;;2.28;1.13;;;;;;;;;;5134332;28;20019;-72
2023/04/15 12:05:25;;;;;;;3.22;1.17;;;;;;;;;;5133795;28;20027;-72
2023/04/15 12:08:11;;;;;;;2.83;1.20;;;;;;;;;;5133649;28;20056;-72
2023/04/15 12:10:58;;;;;;;3.35;1.13;;;;;;;;;;5134952;28;20099;-72
2023/04/15 12:13:47;;;;;;;3.35;1.10;;;;;;;;;;5136145;27;20317;-72
2023/04/15 12:16:35;;;;;;;2.20;1.10;;;;;;;;;;5124644;27;20027;-71
2023/04/15 12:19:25;;;;;;;2.15;1.20;;;;;;;;;;5138421;27;20023;-71
2023/04/15 12:22:11;;;;;;;2.97;1.40;;;;;;;;;;5124599;27;20579;-71
2023/04/15 12:24:57;;;;;;;4.05;1.60;;;;;;;;;;5138635;27;20348;-71
2023/04/15 12:27:49;;;;;;;5.15;1.27;;;;;;;;;;5138601;27;20054;-72
2023/04/15 12:30:35;;;;;;;2.47;1.58;;;;;;;;;;5138262;27;20033;-72
2023/04/15 12:33:20;;;;;;;5.18;1.98;;;;;;;;;;5137056;27;20430;-72
2023/04/15 12:36:07;;;;;;;2.30;1.33;;;;;;;;;;5139282;27;20050;-73
2023/04/15 12:38:52;;;;;;;2.63;1.50;;;;;;;;;;5139087;27;20090;-72
2023/04/15 12:41:38;;;;;;;3.13;1.65;;;;;;;;;;5140307;27;20023;-71
2023/04/15 12:44:23;;;;;;;2.17;1.50;;;;;;;;;;5140111;27;20019;-71
2023/04/15 12:47:10;;;;;;;2.08;1.25;;;;;;;;;;5145926;27;20015;-72
2023/04/15 12:49:56;;;;;;;2.65;1.48;;;;;;;;;;5124289;27;20031;-72
2023/04/15 12:52:41;;;;;;;5.05;1.50;;;;;;;;;;5137048;27;20468;-72
2023/04/15 12:55:27;;;;;;;3.95;1.30;;;;;;;;;;5136575;27;20023;-72
2023/04/15 12:58:12;;;;;;;2.60;1.55;;;;;;;;;;5139308;27;20027;-73
2023/04/15 13:00:58;;;;;;;3.83;1.10;;;;;;;;;;5136955;27;20114;-72
2023/04/15 13:03:44;;;;;;;2.45;1.02;;;;;;;;;;5124761;27;20027;-72
2023/04/15 13:06:32;;;;;;;3.45;1.20;;;;;;;;;;5123036;27;20033;-72
2023/04/15 13:09:17;;;;;;;1.95;1.08;;;;;;;;;;5139677;27;20045;-71
2023/04/15 13:12:04;;;;;;;3.97;1.10;;;;;;;;;;5136413;27;20038;-72
2023/04/15 13:14:49;;;;;;;3.28;1.38;;;;;;;;;;5136245;27;20030;-71
2023/04/15 13:17:35;;;;;;;2.00;1.13;;;;;;;;;;5136472;27;20029;-72
2023/04/15 13:20:21;;;;;;;2.40;1.00;;;;;;;;;;5137481;27;20073;-72
2023/04/15 13:23:06;;;;;;;3.90;1.48;;;;;;;;;;5136797;27;20438;-72
2023/04/15 13:25:52;;;;;;;5.45;1.30;;;;;;;;;;5136222;27;20354;-72
2023/04/15 13:28:38;;;;;;;4.07;0.95;;;;;;;;;;5136648;27;20023;-72
2023/04/15 13:31:23;;;;;;;4.20;1.30;;;;;;;;;;5121574;27;20019;-72
2023/04/15 13:34:09;;;;;;;5.13;1.05;;;;;;;;;;5123208;27;20019;-71
2023/04/15 13:36:55;;;;;;;2.33;1.00;;;;;;;;;;5137196;27;20019;-73
2023/04/15 13:39:40;;;;;;;4.68;1.10;;;;;;;;;;5123267;27;20024;-72
2023/04/15 13:42:26;;;;;;;17.48;2.08;;;;;;;;;;5135467;27;20018;-72
2023/04/15 13:45:12;;;;;;;6.20;1.48;;;;;;;;;;5136977;27;20098;-72
2023/04/15 13:47:57;;;;;;;2.72;1.30;;;;;;;;;;5136993;27;20019;-72
2023/04/15 13:50:44;;;;;;;3.35;1.40;;;;;;;;;;5135963;27;20110;-72
2023/04/15 13:53:29;;;;;;;4.43;1.40;;;;;;;;;;5135830;27;20075;-72
2023/04/15 13:56:15;;;;;;;1.52;0.90;;;;;;;;;;5136144;27;20023;-72
2023/04/15 13:59:01;;;;;;;1.95;1.00;;;;;;;;;;5122402;27;20029;-71
2023/04/15 14:01:47;;;;;;;2.25;1.10;;;;;;;;;;5136167;27;20025;-72
2023/04/15 14:04:33;;;;;;;2.30;1.15;;;;;;;;;;5136156;27;20023;-71
2023/04/15 14:07:18;;;;;;;3.10;1.10;;;;;;;;;;5137716;27;20131;-71
2023/04/15 14:10:04;;;;;;;8.82;1.50;;;;;;;;;;5135488;27;20019;-72
2023/04/15 14:12:50;;;;;;;2.13;1.20;;;;;;;;;;5137073;27;20414;-72
2023/04/15 14:15:35;;;;;;;2.97;1.30;;;;;;;;;;5123042;27;20106;-71
2023/04/15 14:18:21;;;;;;;2.72;1.30;;;;;;;;;;5137675;27;20495;-71
2023/04/15 14:21:06;;;;;;;3.20;1.50;;;;;;;;;;5124578;27;20476;-72
2023/04/15 14:23:52;;;;;;;4.40;1.90;;;;;;;;;;5135312;27;20020;-71
2023/04/15 14:26:38;;;;;;;4.60;2.50;;;;;;;;;;5121553;27;20023;-72
2023/04/15 14:29:23;;;;;;;4.18;2.15;;;;;;;;;;5135493;27;20043;-71
2023/04/15 14:32:09;;;;;;;3.10;1.35;;;;;;;;;;5134594;27;20015;-71
2023/04/15 14:34:55;;;;;;;5.10;1.45;;;;;;;;;;5134471;27;20023;-71
2023/04/15 14:37:40;;;;;;;6.95;1.65;;;;;;;;;;5135845;27;20018;-71
2023/04/15 14:40:26;;;;;;;3.50;2.00;;;;;;;;;;5134684;27;20117;-72
2023/04/15 14:43:11;;;;;;;4.75;1.90;;;;;;;;;;5134967;27;20466;-71
2023/04/15 14:45:57;;;;;;;10.93;1.95;;;;;;;;;;5121276;27;20412;-70
2023/04/15 14:48:43;;;;;;;4.40;1.42;;;;;;;;;;5134537;27;20019;-72
2023/04/15 14:51:28;;;;;;;7.57;1.60;;;;;;;;;;5135145;27;20023;-71
2023/04/15 14:54:14;;;;;;;4.55;2.28;;;;;;;;;;5135337;27;20023;-71
2023/04/15 14:57:00;;;;;;;2.55;1.70;;;;;;;;;;5135194;27;20023;-71
2023/04/15 14:59:46;;;;;;;7.93;2.03;;;;;;;;;;5137063;27;20115;-71
2023/04/15 15:02:32;;;;;;;3.35;1.55;;;;;;;;;;5134836;27;20019;-72
2023/04/15 15:05:18;;;;;;;2.50;1.35;;;;;;;;;;5135081;27;20058;-71
2023/04/15 15:08:04;;;;;;;2.55;1.50;;;;;;;;;;5121516;28;20077;-73
2023/04/15 15:10:50;;;;;;;3.70;1.75;;;;;;;;;;5136570;27;20096;-74
2023/04/15 15:13:36;;;;;;;3.83;2.40;;;;;;;;;;5121994;27;20324;-71
2023/04/15 15:16:21;;;;;;;4.68;1.92;;;;;;;;;;5121986;28;20015;-71
2023/04/15 15:19:07;;;;;;;14.07;2.22;;;;;;;;;;5133969;28;20057;-72
2023/04/15 15:21:52;;;;;;;4.22;1.80;;;;;;;;;;5135881;28;20016;-72
2023/04/15 15:24:38;;;;;;;8.23;2.33;;;;;;;;;;5120105;28;20344;-72
2023/04/15 15:27:26;;;;;;;8.45;2.05;;;;;;;;;;5134051;28;20545;-71
2023/04/15 15:30:11;;;;;;;6.75;1.92;;;;;;;;;;5135567;28;20027;-71
2023/04/15 15:32:57;;;;;;;7.90;2.15;;;;;;;;;;5135914;28;20036;-72
2023/04/15 15:35:43;;;;;;;9.68;2.15;;;;;;;;;;5135216;28;20447;-72
2023/04/15 15:38:29;;;;;;;8.02;1.73;;;;;;;;;;5137730;28;20024;-72
2023/04/15 15:41:14;;;;;;;16.45;2.17;;;;;;;;;;5122190;28;20012;-71
2023/04/15 15:44:00;;;;;;;7.20;1.75;;;;;;;;;;5121478;28;20023;-70
2023/04/15 15:46:45;;;;;;;3.17;1.58;;;;;;;;;;5133991;27;20465;-73
2023/04/15 15:49:31;;;;;;;2.58;1.40;;;;;;;;;;5125326;27;20027;-71
2023/04/15 15:52:17;;;;;;;6.53;2.05;;;;;;;;;;5138517;27;20019;-71
2023/04/15 15:55:02;;;;;;;3.63;1.50;;;;;;;;;;5138598;27;20088;-71
2023/04/15 15:57:48;;;;;;;6.80;1.63;;;;;;;;;;5138813;27;20027;-72
2023/04/15 16:00:34;;;;;;;4.45;1.40;;;;;;;;;;5138700;27;20072;-71
2023/04/15 16:03:20;;;;;;;3.28;1.85;;;;;;;;;;5138026;27;20023;-71
2023/04/15 16:06:05;;;;;;;6.75;3.00;;;;;;;;;;5142309;27;20336;-71
2023/04/15 16:08:51;;;;;;;12.88;2.33;;;;;;;;;;5137571;27;20043;-71
2023/04/15 16:11:37;;;;;;;12.68;2.05;;;;;;;;;;5137679;27;20019;-73
2023/04/15 16:14:23;;;;;;;4.43;1.45;;;;;;;;;;5139885;27;20019;-70
2023/04/15 16:17:09;;;;;;;4.22;1.65;;;;;;;;;;5124594;27;20023;-72
2023/04/15 16:19:55;;;;;;;7.18;1.92;;;;;;;;;;5138445;27;20038;-71
2023/04/15 16:22:41;;;;;;;9.02;1.70;;;;;;;;;;5138522;27;20015;-70
2023/04/15 16:25:26;;;;;;;5.18;1.42;;;;;;;;;;5137944;27;20018;-71
2023/04/15 16:28:12;;;;;;;5.75;1.92;;;;;;;;;;5124074;27;20023;-71
2023/04/15 16:30:58;;;;;;;4.18;1.55;;;;;;;;;;5137106;27;20100;-71
2023/04/15 16:33:44;;;;;;;4.10;1.52;;;;;;;;;;5137277;27;20020;-71